Welcome to Des Moines Iowa Weather. I am an independent private personal weather station on the Northwest Side of Des Moines, Iowa. Just East of Windsor Heights and just West of Glendale . This site is also mobile friendly.

There are no active watches, warnings or advisories


Visit our other weather sites:

Historical Data

Weather Station Setup



Weather Underground History page Text

Daily Summary for January 5, 2018 Units:  Both    English   Metric
« Previous Day
Next Day »
Daily Weekly Monthly Yearly Custom
  High: Low: Average:
Temperature: 13.1 °F /  -10.5 °C -1.0 °F /  -18.3 °C 7.7 °F /  -13.5 °C
Dew Point: 4.0 °F /  -15.6 °C -6.0 °F /  -21.1 °C 0.2 °F /  -17.7 °C
Humidity: 79 % 55 % 72 %
Wind Speed: 4.0 mph /  6.4 km/h - 0.9 mph /  1.4 km/h
Wind Gust: 10.0 mph /  16.1 km/h - -
Wind:- - NE
Pressure: 30.66 in /  1038.1 hPa 30.44 in /  1030.7 hPa -
Precipitation: 0.00 in /  0 mm    
Historical Graphs
 
 
Tabular Data for January 5, 2018
Time Temperature Dew Point Pressure Wind Wind Speed Wind Gust Humidity Rainfall Rate (Hourly)
00:02 9.3 °F /  -12.6 °C 3.0 °F /  -16.1 °C 30.44 in /  1030.7 hPa NE 3.0 mph /  4.8 km/h 4.0 mph /  6.4 km/h 75 % 0.00 in /  0 mm
00:18 9.1 °F /  -12.7 °C 3.0 °F /  -16.1 °C 30.44 in /  1030.7 hPa Calm   5.0 mph /  8 km/h 75 % 0.00 in /  0 mm
00:48 8.8 °F /  -12.9 °C 2.0 °F /  -16.7 °C 30.44 in /  1030.7 hPa Calm   1.0 mph /  1.6 km/h 75 % 0.00 in /  0 mm
01:03 8.7 °F /  -12.9 °C 2.0 °F /  -16.7 °C 30.44 in /  1030.7 hPa Calm   3.0 mph /  4.8 km/h 75 % 0.00 in /  0 mm
01:18 8.7 °F /  -12.9 °C 2.0 °F /  -16.7 °C 30.44 in /  1030.7 hPa Calm   1.0 mph /  1.6 km/h 75 % 0.00 in /  0 mm
01:33 8.9 °F /  -12.8 °C 3.0 °F /  -16.1 °C 30.44 in /  1030.7 hPa NE 1.0 mph /  1.6 km/h 2.0 mph /  3.2 km/h 75 % 0.00 in /  0 mm
01:48 8.9 °F /  -12.8 °C 3.0 °F /  -16.1 °C 30.44 in /  1030.7 hPa Calm   3.0 mph /  4.8 km/h 75 % 0.00 in /  0 mm
02:03 8.9 °F /  -12.8 °C 3.0 °F /  -16.1 °C 30.44 in /  1030.7 hPa Calm   3.0 mph /  4.8 km/h 75 % 0.00 in /  0 mm
02:18 8.9 °F /  -12.8 °C 3.0 °F /  -16.1 °C 30.44 in /  1030.7 hPa Calm   3.0 mph /  4.8 km/h 75 % 0.00 in /  0 mm
02:33 8.9 °F /  -12.8 °C 3.0 °F /  -16.1 °C 30.44 in /  1030.7 hPa Calm   2.0 mph /  3.2 km/h 75 % 0.00 in /  0 mm
02:48 8.9 °F /  -12.8 °C 3.0 °F /  -16.1 °C 30.45 in /  1031 hPa Calm   3.0 mph /  4.8 km/h 75 % 0.00 in /  0 mm
03:03 9.0 °F /  -12.8 °C 3.0 °F /  -16.1 °C 30.45 in /  1031 hPa NNE 2.0 mph /  3.2 km/h 2.0 mph /  3.2 km/h 76 % 0.00 in /  0 mm
03:18 9.0 °F /  -12.8 °C 3.0 °F /  -16.1 °C 30.46 in /  1031.4 hPa Calm   3.0 mph /  4.8 km/h 76 % 0.00 in /  0 mm
03:33 9.0 °F /  -12.8 °C 3.0 °F /  -16.1 °C 30.46 in /  1031.4 hPa NE 1.0 mph /  1.6 km/h 2.0 mph /  3.2 km/h 76 % 0.00 in /  0 mm
03:48 9.0 °F /  -12.8 °C 3.0 °F /  -16.1 °C 30.47 in /  1031.7 hPa Calm   3.0 mph /  4.8 km/h 76 % 0.00 in /  0 mm
04:03 9.0 °F /  -12.8 °C 3.0 °F /  -16.1 °C 30.47 in /  1031.7 hPa Calm   2.0 mph /  3.2 km/h 77 % 0.00 in /  0 mm
04:18 9.0 °F /  -12.8 °C 3.0 °F /  -16.1 °C 30.48 in /  1032.1 hPa NE 3.0 mph /  4.8 km/h 4.0 mph /  6.4 km/h 77 % 0.00 in /  0 mm
04:33 9.0 °F /  -12.8 °C 3.0 °F /  -16.1 °C 30.48 in /  1032.1 hPa NE 2.0 mph /  3.2 km/h 3.0 mph /  4.8 km/h 78 % 0.00 in /  0 mm
04:48 8.9 °F /  -12.8 °C 3.0 °F /  -16.1 °C 30.49 in /  1032.4 hPa Calm   5.0 mph /  8 km/h 78 % 0.00 in /  0 mm
05:03 8.9 °F /  -12.8 °C 3.0 °F /  -16.1 °C 30.49 in /  1032.4 hPa Calm   4.0 mph /  6.4 km/h 78 % 0.00 in /  0 mm
05:18 8.9 °F /  -12.8 °C 4.0 °F /  -15.6 °C 30.49 in /  1032.4 hPa NE 1.0 mph /  1.6 km/h 3.0 mph /  4.8 km/h 79 % 0.00 in /  0 mm
05:33 8.9 °F /  -12.8 °C 4.0 °F /  -15.6 °C 30.50 in /  1032.7 hPa Calm   4.0 mph /  6.4 km/h 79 % 0.00 in /  0 mm
05:48 8.9 °F /  -12.8 °C 4.0 °F /  -15.6 °C 30.49 in /  1032.4 hPa NNE 1.0 mph /  1.6 km/h 4.0 mph /  6.4 km/h 79 % 0.00 in /  0 mm
06:03 8.9 °F /  -12.8 °C 4.0 °F /  -15.6 °C 30.51 in /  1033.1 hPa Calm   4.0 mph /  6.4 km/h 79 % 0.00 in /  0 mm
06:18 8.8 °F /  -12.9 °C 4.0 °F /  -15.6 °C 30.51 in /  1033.1 hPa North 3.0 mph /  4.8 km/h 5.0 mph /  8 km/h 79 % 0.00 in /  0 mm
06:33 8.7 °F /  -12.9 °C 3.0 °F /  -16.1 °C 30.51 in /  1033.1 hPa NE 3.0 mph /  4.8 km/h 5.0 mph /  8 km/h 78 % 0.00 in /  0 mm
06:48 8.6 °F /  -13 °C 3.0 °F /  -16.1 °C 30.51 in /  1033.1 hPa Calm   6.0 mph /  9.7 km/h 78 % 0.00 in /  0 mm
07:03 8.6 °F /  -13 °C 3.0 °F /  -16.1 °C 30.51 in /  1033.1 hPa ENE 3.0 mph /  4.8 km/h 4.0 mph /  6.4 km/h 78 % 0.00 in /  0 mm
07:18 8.5 °F /  -13.1 °C 3.0 °F /  -16.1 °C 30.51 in /  1033.1 hPa Calm   4.0 mph /  6.4 km/h 78 % 0.00 in /  0 mm
07:33 8.4 °F /  -13.1 °C 3.0 °F /  -16.1 °C 30.51 in /  1033.1 hPa ENE 2.0 mph /  3.2 km/h 5.0 mph /  8 km/h 78 % 0.00 in /  0 mm
07:48 8.4 °F /  -13.1 °C 3.0 °F /  -16.1 °C 30.51 in /  1033.1 hPa ENE 1.0 mph /  1.6 km/h 6.0 mph /  9.7 km/h 78 % 0.00 in /  0 mm
08:03 8.3 °F /  -13.2 °C 3.0 °F /  -16.1 °C 30.52 in /  1033.4 hPa NNE 1.0 mph /  1.6 km/h 4.0 mph /  6.4 km/h 78 % 0.00 in /  0 mm
08:18 8.1 °F /  -13.3 °C 2.0 °F /  -16.7 °C 30.52 in /  1033.4 hPa Calm   4.0 mph /  6.4 km/h 77 % 0.00 in /  0 mm
08:33 7.9 °F /  -13.4 °C 2.0 °F /  -16.7 °C 30.53 in /  1033.7 hPa Calm   4.0 mph /  6.4 km/h 77 % 0.00 in /  0 mm
08:49 8.0 °F /  -13.3 °C 2.0 °F /  -16.7 °C 30.54 in /  1034.1 hPa North 1.0 mph /  1.6 km/h 6.0 mph /  9.7 km/h 77 % 0.00 in /  0 mm
09:04 8.5 °F /  -13.1 °C 3.0 °F /  -16.1 °C 30.54 in /  1034.1 hPa ENE 3.0 mph /  4.8 km/h 8.0 mph /  12.9 km/h 77 % 0.00 in /  0 mm
09:19 8.6 °F /  -13 °C 3.0 °F /  -16.1 °C 30.55 in /  1034.4 hPa ENE 2.0 mph /  3.2 km/h 8.0 mph /  12.9 km/h 76 % 0.00 in /  0 mm
09:34 8.9 °F /  -12.8 °C 3.0 °F /  -16.1 °C 30.55 in /  1034.4 hPa Calm   10.0 mph /  16.1 km/h 75 % 0.00 in /  0 mm
09:49 9.1 °F /  -12.7 °C 2.0 °F /  -16.7 °C 30.56 in /  1034.8 hPa ENE 1.0 mph /  1.6 km/h 6.0 mph /  9.7 km/h 73 % 0.00 in /  0 mm
10:04 9.8 °F /  -12.3 °C 2.0 °F /  -16.7 °C 30.56 in /  1034.8 hPa NNE 4.0 mph /  6.4 km/h 5.0 mph /  8 km/h 72 % 0.00 in /  0 mm
10:19 10.0 °F /  -12.2 °C 2.0 °F /  -16.7 °C 30.57 in /  1035.1 hPa ENE 1.0 mph /  1.6 km/h 6.0 mph /  9.7 km/h 71 % 0.00 in /  0 mm
10:34 10.2 °F /  -12.1 °C 2.0 °F /  -16.7 °C 30.57 in /  1035.1 hPa NE 2.0 mph /  3.2 km/h 5.0 mph /  8 km/h 70 % 0.00 in /  0 mm
10:49 10.4 °F /  -12 °C 2.0 °F /  -16.7 °C 30.58 in /  1035.4 hPa ENE 1.0 mph /  1.6 km/h 4.0 mph /  6.4 km/h 69 % 0.00 in /  0 mm
11:04 10.5 °F /  -11.9 °C 1.0 °F /  -17.2 °C 30.58 in /  1035.4 hPa ENE 2.0 mph /  3.2 km/h 6.0 mph /  9.7 km/h 66 % 0.00 in /  0 mm
11:19 10.5 °F /  -11.9 °C 1.0 °F /  -17.2 °C 30.57 in /  1035.1 hPa ENE 3.0 mph /  4.8 km/h 5.0 mph /  8 km/h 64 % 0.00 in /  0 mm
11:34 10.9 °F /  -11.7 °C 1.0 °F /  -17.2 °C 30.57 in /  1035.1 hPa NNE 1.0 mph /  1.6 km/h 5.0 mph /  8 km/h 63 % 0.00 in /  0 mm
11:49 11.2 °F /  -11.6 °C 0.0 °F /  -17.8 °C 30.57 in /  1035.1 hPa Calm   5.0 mph /  8 km/h 62 % 0.00 in /  0 mm
12:04 11.6 °F /  -11.3 °C 0.0 °F /  -17.8 °C 30.57 in /  1035.1 hPa ENE 1.0 mph /  1.6 km/h 6.0 mph /  9.7 km/h 59 % 0.00 in /  0 mm
12:19 11.8 °F /  -11.2 °C -1.0 °F /  -18.3 °C 30.57 in /  1035.1 hPa NNE 1.0 mph /  1.6 km/h 6.0 mph /  9.7 km/h 56 % 0.00 in /  0 mm
12:41 12.8 °F /  -10.7 °C -1.0 °F /  -18.3 °C 30.56 in /  1034.8 hPa NE 2.0 mph /  3.2 km/h 4.0 mph /  6.4 km/h 55 % 0.00 in /  0 mm
12:59 12.8 °F /  -10.7 °C -1.0 °F /  -18.3 °C 30.56 in /  1034.8 hPa Calm   5.0 mph /  8 km/h 55 % 0.00 in /  0 mm
13:05 13.1 °F /  -10.5 °C 0.0 °F /  -17.8 °C 30.56 in /  1034.8 hPa Calm   6.0 mph /  9.7 km/h 57 % 0.00 in /  0 mm
13:24 12.9 °F /  -10.6 °C 0.0 °F /  -17.8 °C 30.55 in /  1034.4 hPa North 3.0 mph /  4.8 km/h 6.0 mph /  9.7 km/h 56 % 0.00 in /  0 mm
13:40 12.7 °F /  -10.7 °C 0.0 °F /  -17.8 °C 30.55 in /  1034.4 hPa Calm   6.0 mph /  9.7 km/h 57 % 0.00 in /  0 mm
13:50 12.8 °F /  -10.7 °C -1.0 °F /  -18.3 °C 30.55 in /  1034.4 hPa NNE 2.0 mph /  3.2 km/h 6.0 mph /  9.7 km/h 55 % 0.00 in /  0 mm
14:05 12.1 °F /  -11.1 °C -1.0 °F /  -18.3 °C 30.55 in /  1034.4 hPa NNE 2.0 mph /  3.2 km/h 8.0 mph /  12.9 km/h 57 % 0.00 in /  0 mm
14:20 11.2 °F /  -11.6 °C -1.0 °F /  -18.3 °C 30.56 in /  1034.8 hPa North 1.0 mph /  1.6 km/h 7.0 mph /  11.3 km/h 58 % 0.00 in /  0 mm
14:35 11.4 °F /  -11.4 °C -1.0 °F /  -18.3 °C 30.56 in /  1034.8 hPa NE 1.0 mph /  1.6 km/h 4.0 mph /  6.4 km/h 58 % 0.00 in /  0 mm
14:50 11.3 °F /  -11.5 °C -1.0 °F /  -18.3 °C 30.57 in /  1035.1 hPa North 2.0 mph /  3.2 km/h 5.0 mph /  8 km/h 59 % 0.00 in /  0 mm
15:05 11.2 °F /  -11.6 °C -1.0 °F /  -18.3 °C 30.57 in /  1035.1 hPa ENE 4.0 mph /  6.4 km/h 4.0 mph /  6.4 km/h 58 % 0.00 in /  0 mm
15:20 11.1 °F /  -11.6 °C -1.0 °F /  -18.3 °C 30.57 in /  1035.1 hPa ENE 4.0 mph /  6.4 km/h 6.0 mph /  9.7 km/h 58 % 0.00 in /  0 mm
15:35 10.8 °F /  -11.8 °C -1.0 °F /  -18.3 °C 30.57 in /  1035.1 hPa Calm   4.0 mph /  6.4 km/h 60 % 0.00 in /  0 mm
15:50 10.6 °F /  -11.9 °C -1.0 °F /  -18.3 °C 30.57 in /  1035.1 hPa Calm   6.0 mph /  9.7 km/h 60 % 0.00 in /  0 mm
16:05 9.7 °F /  -12.4 °C -2.0 °F /  -18.9 °C 30.57 in /  1035.1 hPa ENE 1.0 mph /  1.6 km/h 6.0 mph /  9.7 km/h 60 % 0.00 in /  0 mm
16:20 9.3 °F /  -12.6 °C -1.0 °F /  -18.3 °C 30.58 in /  1035.4 hPa NNE 3.0 mph /  4.8 km/h 5.0 mph /  8 km/h 62 % 0.00 in /  0 mm
16:35 8.7 °F /  -12.9 °C -1.0 °F /  -18.3 °C 30.58 in /  1035.4 hPa ENE 1.0 mph /  1.6 km/h 5.0 mph /  8 km/h 65 % 0.00 in /  0 mm
16:50 7.8 °F /  -13.4 °C -1.0 °F /  -18.3 °C 30.58 in /  1035.4 hPa Calm   3.0 mph /  4.8 km/h 66 % 0.00 in /  0 mm
17:05 7.4 °F /  -13.7 °C -2.0 °F /  -18.9 °C 30.58 in /  1035.4 hPa ENE 1.0 mph /  1.6 km/h 3.0 mph /  4.8 km/h 67 % 0.00 in /  0 mm
17:20 6.9 °F /  -13.9 °C -1.0 °F /  -18.3 °C 30.59 in /  1035.8 hPa Calm   4.0 mph /  6.4 km/h 69 % 0.00 in /  0 mm
17:35 6.4 °F /  -14.2 °C -1.0 °F /  -18.3 °C 30.59 in /  1035.8 hPa Calm   3.0 mph /  4.8 km/h 70 % 0.00 in /  0 mm
17:50 5.8 °F /  -14.6 °C -2.0 °F /  -18.9 °C 30.60 in /  1036.1 hPa Calm   4.0 mph /  6.4 km/h 71 % 0.00 in /  0 mm
18:06 5.3 °F /  -14.8 °C -2.0 °F /  -18.9 °C 30.60 in /  1036.1 hPa Calm   4.0 mph /  6.4 km/h 71 % 0.00 in /  0 mm
18:21 4.8 °F /  -15.1 °C -2.0 °F /  -18.9 °C 30.60 in /  1036.1 hPa Calm   2.0 mph /  3.2 km/h 72 % 0.00 in /  0 mm
18:36 4.4 °F /  -15.3 °C -3.0 °F /  -19.4 °C 30.61 in /  1036.5 hPa Calm   2.0 mph /  3.2 km/h 73 % 0.00 in /  0 mm
18:51 4.1 °F /  -15.5 °C -3.0 °F /  -19.4 °C 30.61 in /  1036.5 hPa Calm   3.0 mph /  4.8 km/h 74 % 0.00 in /  0 mm
19:06 3.8 °F /  -15.7 °C -2.0 °F /  -18.9 °C 30.62 in /  1036.8 hPa Calm   3.0 mph /  4.8 km/h 75 % 0.00 in /  0 mm
19:21 3.3 °F /  -15.9 °C -3.0 °F /  -19.4 °C 30.62 in /  1036.8 hPa Calm   3.0 mph /  4.8 km/h 75 % 0.00 in /  0 mm
19:36 3.0 °F /  -16.1 °C -3.0 °F /  -19.4 °C 30.63 in /  1037.1 hPa NNE 1.0 mph /  1.6 km/h 3.0 mph /  4.8 km/h 76 % 0.00 in /  0 mm
19:51 2.7 °F /  -16.3 °C -3.0 °F /  -19.4 °C 30.64 in /  1037.5 hPa Calm   2.0 mph /  3.2 km/h 76 % 0.00 in /  0 mm
20:06 2.6 °F /  -16.3 °C -3.0 °F /  -19.4 °C 30.64 in /  1037.5 hPa NNE 1.0 mph /  1.6 km/h 2.0 mph /  3.2 km/h 76 % 0.00 in /  0 mm
20:21 2.4 °F /  -16.4 °C -3.0 °F /  -19.4 °C 30.64 in /  1037.5 hPa NNE 1.0 mph /  1.6 km/h 3.0 mph /  4.8 km/h 77 % 0.00 in /  0 mm
20:36 2.3 °F /  -16.5 °C -3.0 °F /  -19.4 °C 30.64 in /  1037.5 hPa Calm   2.0 mph /  3.2 km/h 77 % 0.00 in /  0 mm
20:51 2.4 °F /  -16.4 °C -3.0 °F /  -19.4 °C 30.63 in /  1037.1 hPa NNE 2.0 mph /  3.2 km/h 2.0 mph /  3.2 km/h 77 % 0.00 in /  0 mm
21:06 2.6 °F /  -16.3 °C -3.0 °F /  -19.4 °C 30.63 in /  1037.1 hPa Calm   4.0 mph /  6.4 km/h 77 % 0.00 in /  0 mm
21:22 2.7 °F /  -16.3 °C -3.0 °F /  -19.4 °C 30.63 in /  1037.1 hPa Calm   2.0 mph /  3.2 km/h 77 % 0.00 in /  0 mm
21:37 2.7 °F /  -16.3 °C -3.0 °F /  -19.4 °C 30.64 in /  1037.5 hPa NNE 2.0 mph /  3.2 km/h 2.0 mph /  3.2 km/h 77 % 0.00 in /  0 mm
21:52 2.5 °F /  -16.4 °C -3.0 °F /  -19.4 °C 30.64 in /  1037.5 hPa Calm   1.0 mph /  1.6 km/h 77 % 0.00 in /  0 mm
22:07 2.2 °F /  -16.6 °C -4.0 °F /  -20 °C 30.64 in /  1037.5 hPa Calm     76 % 0.00 in /  0 mm
22:22 1.7 °F /  -16.8 °C -4.0 °F /  -20 °C 30.64 in /  1037.5 hPa Calm     76 % 0.00 in /  0 mm
22:37 1.2 °F /  -17.1 °C -5.0 °F /  -20.6 °C 30.65 in /  1037.8 hPa Calm     76 % 0.00 in /  0 mm
22:52 0.7 °F /  -17.4 °C -5.0 °F /  -20.6 °C 30.65 in /  1037.8 hPa Calm     76 % 0.00 in /  0 mm
23:07 0.2 °F /  -17.7 °C -5.0 °F /  -20.6 °C 30.65 in /  1037.8 hPa Calm     77 % 0.00 in /  0 mm
23:22 -0.2 °F /  -17.9 °C -6.0 °F /  -21.1 °C 30.66 in /  1038.1 hPa Calm     77 % 0.00 in /  0 mm
23:37 -0.5 °F /  -18.1 °C -6.0 °F /  -21.1 °C 30.65 in /  1037.8 hPa Calm     78 % 0.00 in /  0 mm
23:52 -1.0 °F /  -18.3 °C -6.0 °F /  -21.1 °C 30.65 in /  1037.8 hPa Calm     78 % 0.00 in /  0 mm
Des Moines Weather and Climate
Compliments of Weather Underground - 3 mb

Script developed by  Jim McMurry - jmcmurry@mwt.net Adapted for the template by  Wim van der Kuil - Leuven-Template.eu

You find our weather info also at:

Weather Underground

Equipment we use:

Weather-station
Davis VP2 Plus

Weather-program
Davis Weatherlink.Com

Weather-server
iMac (Retina 4K, 21.5-inch, Late 2015)

Provider
Hostmonster.com

Davis VP2 Plus

Davis Weatherlink.Com

iMac (Retina 4K, 21.5-inch, Late 2015)

Hostmonster.com